createdAt,value
2023-05-23T00:00:54.105Z,101040.53
2023-05-23T00:03:23.002Z,101040.88
2023-05-23T00:05:51.529Z,101039.84
2023-05-23T00:08:19.787Z,101041.91
2023-05-23T00:10:49.162Z,101042.28
2023-05-23T00:13:17.580Z,101040.28
2023-05-23T00:15:48.978Z,101040.75
2023-05-23T00:18:17.402Z,101038.66
2023-05-23T00:20:46.926Z,101043.53
2023-05-23T00:23:19.581Z,101036.25
2023-05-23T00:25:52.471Z,101037.19
2023-05-23T00:28:21.360Z,101014.41
2023-05-23T00:30:50.117Z,101034.25
2023-05-23T00:33:22.604Z,101059.38
2023-05-23T00:35:50.482Z,101056.81
2023-05-23T00:38:18.494Z,101057.63
2023-05-23T00:40:47.033Z,101057.19
2023-05-23T00:43:16.186Z,101043.56
2023-05-23T00:45:43.985Z,101047.88
2023-05-23T00:48:12.811Z,101053.22
2023-05-23T00:50:41.263Z,101053.00
2023-05-23T00:53:09.127Z,101055.44
2023-05-23T00:55:37.548Z,101048.00
2023-05-23T00:58:05.603Z,101046.72
2023-05-23T01:00:35.809Z,101050.78
2023-05-23T01:03:05.635Z,101048.91
2023-05-23T01:05:33.474Z,101062.41
2023-05-23T01:08:03.261Z,101056.81
2023-05-23T01:13:30.134Z,101065.91
2023-05-23T01:16:07.253Z,101075.78
2023-05-23T01:18:41.934Z,101076.38
2023-05-23T01:21:15.090Z,101067.75
2023-05-23T01:24:04.037Z,101080.66
2023-05-23T01:26:48.292Z,101073.22
2023-05-23T01:29:24.269Z,101088.22
2023-05-23T01:31:55.699Z,101082.41
2023-05-23T01:34:24.562Z,101090.44
2023-05-23T01:36:56.300Z,101099.03
2023-05-23T01:39:25.426Z,101096.03
2023-05-23T01:41:54.705Z,101095.78
2023-05-23T01:44:24.125Z,101096.59
2023-05-23T01:46:52.529Z,101096.84
2023-05-23T01:49:23.670Z,101092.28
2023-05-23T01:51:51.526Z,101088.31
2023-05-23T01:54:21.224Z,101085.09
2023-05-23T01:56:49.487Z,101097.63
2023-05-23T01:59:17.327Z,101096.34
2023-05-23T02:01:47.302Z,101090.44
2023-05-23T02:04:15.761Z,101096.22
2023-05-23T02:06:43.590Z,101090.44
2023-05-23T02:09:11.792Z,101084.28
2023-05-23T02:11:39.549Z,101089.16
2023-05-23T02:14:08.284Z,101094.72
2023-05-23T02:16:36.989Z,101091.59
2023-05-23T02:19:06.451Z,101070.47
2023-05-23T02:21:35.485Z,101087.31
2023-05-23T02:24:04.028Z,101075.81
2023-05-23T02:26:31.842Z,101075.56
2023-05-23T02:28:59.604Z,101078.25
2023-05-23T02:31:28.292Z,101079.03
2023-05-23T02:33:56.198Z,101080.44
2023-05-23T02:36:25.351Z,101076.72
2023-05-23T02:38:53.722Z,101076.72
2023-05-23T02:41:21.532Z,101090.09
2023-05-23T02:43:49.301Z,101079.84
2023-05-23T02:46:17.561Z,101096.25
2023-05-23T02:48:45.664Z,101100.19
2023-05-23T02:51:14.181Z,101103.34
2023-05-23T02:53:43.813Z,101104.25
2023-05-23T02:56:11.730Z,101097.28
2023-05-23T02:58:39.998Z,101097.75
2023-05-23T03:01:08.752Z,101095.09
2023-05-23T03:03:36.684Z,101091.81
2023-05-23T03:06:06.266Z,101099.25
2023-05-23T03:08:34.536Z,101104.81
2023-05-23T03:11:03.741Z,101111.00
2023-05-23T03:13:31.651Z,101100.75
2023-05-23T03:16:00.061Z,101107.72
2023-05-23T03:18:27.875Z,101105.06
2023-05-23T03:20:55.598Z,101104.00
2023-05-23T03:23:23.890Z,101109.16
2023-05-23T03:25:51.669Z,101111.00
2023-05-23T03:28:20.757Z,101106.09
2023-05-23T03:30:49.062Z,101118.91
2023-05-23T03:33:17.043Z,101124.44
2023-05-23T03:35:44.781Z,101129.50
2023-05-23T03:38:13.091Z,101127.88
2023-05-23T03:40:40.824Z,101126.47
2023-05-23T03:43:09.537Z,101136.22
2023-05-23T03:45:39.420Z,101122.47
2023-05-23T03:48:07.367Z,101127.66
2023-05-23T03:50:35.148Z,101130.00
2023-05-23T03:53:03.444Z,101132.44
2023-05-23T03:55:33.058Z,101137.09
2023-05-23T03:58:00.959Z,101133.59
2023-05-23T04:00:29.182Z,101128.72
2023-05-23T04:02:58.397Z,101137.63
2023-05-23T04:05:26.285Z,101140.59
2023-05-23T04:07:54.547Z,101140.84
2023-05-23T04:10:22.284Z,101147.53
2023-05-23T04:12:50.019Z,101140.25
2023-05-23T04:15:18.209Z,101146.66
2023-05-23T04:17:46.023Z,101143.69
2023-05-23T04:20:15.171Z,101143.06
2023-05-23T04:22:43.674Z,101158.19
2023-05-23T04:25:11.608Z,101155.31
2023-05-23T04:27:40.623Z,101155.31
2023-05-23T04:32:38.986Z,101151.75
2023-05-23T04:35:07.550Z,101149.00
2023-05-23T04:37:38.198Z,101155.97
2023-05-23T04:40:07.216Z,101154.66
2023-05-23T04:42:36.077Z,101145.97
2023-05-23T04:45:04.609Z,101157.19
2023-05-23T04:47:36.978Z,101153.63
2023-05-23T04:50:06.063Z,101155.38
2023-05-23T04:52:34.394Z,101162.19
2023-05-23T04:55:04.201Z,101159.69
2023-05-23T04:57:32.874Z,101161.69
2023-05-23T05:00:01.189Z,101164.59
2023-05-23T05:02:34.023Z,101165.31
2023-05-23T05:05:01.829Z,101166.72
2023-05-23T05:07:30.363Z,101164.50
2023-05-23T05:10:00.875Z,101161.38
2023-05-23T05:12:30.411Z,101166.50
2023-05-23T05:14:58.189Z,101167.69
2023-05-23T05:17:26.239Z,101170.34
2023-05-23T05:19:54.036Z,101171.41
2023-05-23T05:22:21.817Z,101178.13
2023-05-23T05:24:50.095Z,101181.63
2023-05-23T05:27:17.915Z,101174.75
2023-05-23T05:29:48.124Z,101180.47
2023-05-23T05:32:16.938Z,101181.03
2023-05-23T05:34:46.430Z,101178.94
2023-05-23T05:37:15.533Z,101183.34
2023-05-23T05:39:43.915Z,101187.03
2023-05-23T05:42:11.659Z,101183.72
2023-05-23T05:44:39.413Z,101189.41
2023-05-23T05:47:09.062Z,101191.28
2023-05-23T05:49:36.646Z,101193.72
2023-05-23T05:52:04.502Z,101182.50
2023-05-23T05:54:32.288Z,101188.66
2023-05-23T05:57:00.123Z,101195.19
2023-05-23T05:59:28.486Z,101201.53
2023-05-23T06:01:57.701Z,101209.06
2023-05-23T06:04:26.869Z,101206.63
2023-05-23T06:06:54.660Z,101215.53
2023-05-23T06:09:22.628Z,101212.66
2023-05-23T06:11:50.406Z,101208.94
2023-05-23T06:14:18.277Z,101221.69
2023-05-23T06:16:46.800Z,101223.31
2023-05-23T06:19:14.727Z,101216.72
2023-05-23T06:21:43.853Z,101218.41
2023-05-23T06:24:11.963Z,101226.56
2023-05-23T06:26:39.706Z,101223.91
2023-05-23T06:29:07.457Z,101229.47
2023-05-23T06:31:35.710Z,101224.56
2023-05-23T06:34:03.573Z,101235.56
2023-05-23T06:36:31.907Z,101234.28
2023-05-23T06:39:01.210Z,101230.41
2023-05-23T06:41:29.037Z,101233.28
2023-05-23T06:43:56.799Z,101232.81
2023-05-23T06:46:25.518Z,101243.75
2023-05-23T06:49:02.727Z,101244.59
2023-05-23T06:51:41.512Z,101249.28
2023-05-23T06:54:11.534Z,101250.88
2023-05-23T06:56:39.312Z,101256.81
2023-05-23T06:59:07.130Z,101259.03
2023-05-23T07:01:34.958Z,101252.41
2023-05-23T07:04:02.806Z,101251.53
2023-05-23T07:06:31.519Z,101252.34
2023-05-23T07:08:59.364Z,101259.13
2023-05-23T07:11:28.584Z,101261.56
2023-05-23T07:13:56.396Z,101268.81
2023-05-23T07:16:24.296Z,101270.38
2023-05-23T07:18:52.510Z,101269.78
2023-05-23T07:21:20.467Z,101273.28
2023-05-23T07:23:48.225Z,101276.09
2023-05-23T07:26:16.154Z,101276.50
2023-05-23T07:28:45.623Z,101268.25
2023-05-23T07:31:13.513Z,101273.13
2023-05-23T07:33:41.564Z,101279.97
2023-05-23T07:36:10.030Z,101278.34
2023-05-23T07:38:37.821Z,101288.13
2023-05-23T07:41:11.563Z,101280.13
2023-05-23T07:43:40.288Z,101283.47
2023-05-23T07:46:09.543Z,101277.75
2023-05-23T07:48:37.619Z,101289.22
2023-05-23T07:51:06.043Z,101282.25
2023-05-23T07:53:33.871Z,101283.56
2023-05-23T07:56:02.684Z,101284.28
2023-05-23T07:58:30.499Z,101288.00
2023-05-23T08:00:59.578Z,101292.47
2023-05-23T08:03:29.079Z,101290.25
2023-05-23T08:05:56.851Z,101290.84
2023-05-23T08:08:24.667Z,101286.53
2023-05-23T08:10:52.817Z,101287.44
2023-05-23T08:13:20.630Z,101294.66
2023-05-23T08:15:48.449Z,101288.78
2023-05-23T08:18:16.814Z,101289.78
2023-05-23T08:20:46.255Z,101291.31
2023-05-23T08:23:14.280Z,101295.88
2023-05-23T08:25:42.369Z,101298.81
2023-05-23T08:28:10.217Z,101300.47
2023-05-23T08:30:38.095Z,101304.69
2023-05-23T08:33:07.521Z,101308.38
2023-05-23T08:35:36.520Z,101306.69
2023-05-23T08:38:09.185Z,101295.75
2023-05-23T08:40:38.032Z,101301.63
2023-05-23T08:43:06.164Z,101304.19
2023-05-23T08:45:34.903Z,101306.97
2023-05-23T08:48:04.442Z,101306.41
2023-05-23T08:50:32.881Z,101310.47
2023-05-23T08:53:01.365Z,101309.41
2023-05-23T08:55:31.105Z,101308.72
2023-05-23T08:58:00.458Z,101318.06
2023-05-23T09:00:29.519Z,101307.78
2023-05-23T09:02:58.264Z,101316.28
2023-05-23T09:05:27.647Z,101315.94
2023-05-23T09:07:57.023Z,101309.91
2023-05-23T09:10:24.912Z,101310.22
2023-05-23T09:12:54.080Z,101309.84
2023-05-23T09:15:22.587Z,101312.09
2023-05-23T09:17:50.491Z,101305.16
2023-05-23T09:20:19.381Z,101306.84
2023-05-23T09:22:48.358Z,101310.66
2023-05-23T09:25:16.721Z,101312.19
2023-05-23T09:27:47.790Z,101314.53
2023-05-23T09:30:19.793Z,101322.53
2023-05-23T09:33:03.943Z,101306.16
2023-05-23T09:35:33.572Z,101313.03
2023-05-23T09:38:01.732Z,101318.25
2023-05-23T09:40:33.994Z,101319.19
2023-05-23T09:43:04.277Z,101319.78
2023-05-23T09:45:34.976Z,101327.84
2023-05-23T09:48:02.891Z,101327.09
2023-05-23T09:50:34.177Z,101335.63
2023-05-23T09:53:02.680Z,101335.28
2023-05-23T09:55:30.468Z,101333.94
2023-05-23T09:58:00.803Z,101337.50
2023-05-23T10:00:29.969Z,101336.66
2023-05-23T10:03:10.797Z,101333.06
2023-05-23T10:05:42.857Z,101331.75
2023-05-23T10:08:15.234Z,101333.03
2023-05-23T10:11:34.887Z,101336.19
2023-05-23T10:14:04.676Z,101346.00
2023-05-23T10:16:40.551Z,101359.03
2023-05-23T10:19:18.650Z,101351.38
2023-05-23T10:21:51.714Z,101351.28
2023-05-23T10:24:20.690Z,101342.59
2023-05-23T10:26:49.861Z,101336.66
2023-05-23T10:29:17.969Z,101340.47
2023-05-23T10:31:46.479Z,101342.59
2023-05-23T10:34:25.278Z,101349.75
2023-05-23T10:37:00.264Z,101343.03
2023-05-23T10:39:50.677Z,101343.00
2023-05-23T10:42:25.073Z,101340.97
2023-05-23T10:44:52.921Z,101333.19
2023-05-23T10:47:31.107Z,101342.03
2023-05-23T10:50:02.501Z,101345.38
2023-05-23T10:52:40.997Z,101347.44
2023-05-23T10:55:14.872Z,101345.25
2023-05-23T10:57:43.910Z,101326.03
2023-05-23T11:00:16.644Z,101343.66
2023-05-23T11:02:56.435Z,101338.22
2023-05-23T11:05:28.565Z,101341.59
2023-05-23T11:08:10.377Z,101340.53
2023-05-23T11:10:57.622Z,101343.69
2023-05-23T11:13:25.513Z,101341.50
2023-05-23T11:15:53.554Z,101341.50
2023-05-23T11:18:23.319Z,101338.94
2023-05-23T11:20:54.679Z,101337.63
2023-05-23T11:23:23.935Z,101339.16
2023-05-23T11:25:53.941Z,101341.19
2023-05-23T11:28:22.051Z,101337.19
2023-05-23T11:30:51.066Z,101339.63
2023-05-23T11:33:20.810Z,101334.50
2023-05-23T11:35:51.634Z,101335.00
2023-05-23T11:38:21.177Z,101338.16
2023-05-23T11:40:49.391Z,101338.47
2023-05-23T11:43:19.514Z,101328.47
2023-05-23T11:45:47.756Z,101338.00
2023-05-23T11:48:17.004Z,101335.34
2023-05-23T11:50:47.165Z,101337.06
2023-05-23T11:53:17.512Z,101331.94
2023-05-23T11:55:53.446Z,101329.84
2023-05-23T11:58:22.836Z,101324.13
2023-05-23T12:00:51.742Z,101320.34
2023-05-23T12:03:22.143Z,101332.94
2023-05-23T12:05:50.250Z,101337.63
2023-05-23T12:08:18.036Z,101332.38
2023-05-23T12:10:55.362Z,101328.44
2023-05-23T12:13:26.209Z,101314.31
2023-05-23T12:15:58.859Z,101327.94
2023-05-23T12:18:29.695Z,101320.69
2023-05-23T12:21:01.348Z,101323.03
2023-05-23T12:23:31.824Z,101327.34
2023-05-23T12:26:07.454Z,101328.38
2023-05-23T12:28:37.239Z,101323.94
2023-05-23T12:31:12.750Z,101326.97
2023-05-23T12:33:41.318Z,101325.53
2023-05-23T12:36:09.187Z,101322.75
2023-05-23T12:38:40.820Z,101335.13
2023-05-23T12:41:16.740Z,101322.75
2023-05-23T12:43:51.564Z,101342.09
2023-05-23T12:46:19.372Z,101333.50
2023-05-23T12:48:47.380Z,101329.84
2023-05-23T12:51:15.466Z,101331.56
2023-05-23T12:53:43.294Z,101334.25
2023-05-23T12:56:11.144Z,101333.94
2023-05-23T12:58:40.397Z,101334.16
2023-05-23T13:01:08.201Z,101330.81
2023-05-23T13:03:36.625Z,101333.03
2023-05-23T13:06:04.897Z,101336.53
2023-05-23T13:08:32.857Z,101321.34
2023-05-23T13:11:00.759Z,101329.41
2023-05-23T13:13:29.016Z,101328.06
2023-05-23T13:15:58.604Z,101332.41
2023-05-23T13:18:26.818Z,101334.88
2023-05-23T13:20:54.864Z,101325.06
2023-05-23T13:23:22.753Z,101327.09
2023-05-23T13:25:51.273Z,101325.09
2023-05-23T13:28:19.297Z,101333.81
2023-05-23T13:30:47.595Z,101324.03
2023-05-23T13:33:17.171Z,101323.56
2023-05-23T13:35:45.471Z,101324.25
2023-05-23T13:38:13.255Z,101317.31
2023-05-23T13:40:41.384Z,101314.63
2023-05-23T13:43:09.805Z,101324.53
2023-05-23T13:45:37.643Z,101323.00
2023-05-23T13:48:05.856Z,101314.63
2023-05-23T13:50:35.629Z,101305.94
2023-05-23T13:53:03.826Z,101317.00
2023-05-23T13:55:31.632Z,101315.69
2023-05-23T13:57:59.472Z,101318.06
2023-05-23T14:00:27.268Z,101321.22
2023-05-23T14:02:55.308Z,101315.75
2023-05-23T14:05:23.849Z,101323.97
2023-05-23T14:07:53.240Z,101313.16
2023-05-23T14:10:21.127Z,101323.25
2023-05-23T14:12:49.288Z,101321.72
2023-05-23T14:15:17.672Z,101320.50
2023-05-23T14:17:45.469Z,101309.28
2023-05-23T14:20:13.949Z,101307.50
2023-05-23T14:22:42.069Z,101309.19
2023-05-23T14:25:11.550Z,101310.56
2023-05-23T14:27:40.433Z,101305.34
2023-05-23T14:30:09.565Z,101302.84
2023-05-23T14:32:39.145Z,101300.16
2023-05-23T14:35:08.294Z,101304.72
2023-05-23T14:37:36.656Z,101309.03
2023-05-23T14:40:04.703Z,101313.84
2023-05-23T14:42:34.325Z,101303.25
2023-05-23T14:45:01.897Z,101302.69
2023-05-23T14:47:29.804Z,101307.75
2023-05-23T14:49:57.794Z,101299.00
2023-05-23T14:52:25.685Z,101299.09
2023-05-23T14:54:53.481Z,101294.78
2023-05-23T14:57:21.309Z,101285.19
2023-05-23T14:59:50.479Z,101287.47
2023-05-23T15:02:18.275Z,101299.34
2023-05-23T15:04:46.674Z,101280.81
2023-05-23T15:07:14.847Z,101287.78
2023-05-23T15:09:42.578Z,101286.31
2023-05-23T15:12:10.754Z,101292.44
2023-05-23T15:14:38.484Z,101297.16
2023-05-23T15:17:08.686Z,101281.91
2023-05-23T15:19:37.156Z,101300.81
2023-05-23T15:22:05.539Z,101288.69
2023-05-23T15:24:34.975Z,101297.38
2023-05-23T15:27:19.011Z,101290.41
2023-05-23T15:29:48.239Z,101293.16
2023-05-23T15:32:17.543Z,101283.41
2023-05-23T15:34:45.285Z,101286.34
2023-05-23T15:37:13.009Z,101297.00
2023-05-23T15:39:40.872Z,101292.28
2023-05-23T15:42:09.028Z,101294.53
2023-05-23T15:44:36.828Z,101299.03
2023-05-23T15:47:05.217Z,101294.13
2023-05-23T15:49:34.301Z,101299.16
2023-05-23T15:52:02.058Z,101304.59
2023-05-23T15:54:29.947Z,101296.25
2023-05-23T15:56:57.699Z,101299.50
2023-05-23T15:59:25.445Z,101304.38
2023-05-23T16:01:53.370Z,101303.31
2023-05-23T16:04:21.162Z,101303.56
2023-05-23T16:06:50.315Z,101311.38
2023-05-23T16:09:18.295Z,101301.28
2023-05-23T16:11:46.040Z,101310.59
2023-05-23T16:14:13.798Z,101299.72
2023-05-23T16:16:41.954Z,101301.06
2023-05-23T16:19:09.901Z,101297.94
2023-05-23T16:21:37.657Z,101305.16
2023-05-23T16:24:07.520Z,101286.94
2023-05-23T16:26:35.371Z,101289.25
2023-05-23T16:29:03.130Z,101300.44
2023-05-23T16:31:31.415Z,101292.69
2023-05-23T16:33:59.637Z,101283.78
2023-05-23T16:36:27.368Z,101287.66
2023-05-23T16:38:55.862Z,101302.72
2023-05-23T16:41:25.205Z,101294.31
2023-05-23T16:43:53.081Z,101296.41
2023-05-23T16:46:22.484Z,101292.00
2023-05-23T16:48:50.402Z,101288.50
2023-05-23T16:51:18.408Z,101291.56
2023-05-23T16:53:46.436Z,101292.75
2023-05-23T16:56:14.168Z,101294.59
2023-05-23T16:58:43.301Z,101292.97
2023-05-23T17:01:11.195Z,101292.25
2023-05-23T17:03:41.239Z,101287.13
2023-05-23T17:06:09.167Z,101298.78
2023-05-23T17:08:37.059Z,101305.09
2023-05-23T17:11:04.902Z,101300.34
2023-05-23T17:13:33.062Z,101305.38
2023-05-23T17:16:02.434Z,101302.31
2023-05-23T17:18:30.296Z,101313.84
2023-05-23T17:20:58.257Z,101315.88
2023-05-23T17:23:26.383Z,101317.03
2023-05-23T17:25:55.099Z,101311.91
2023-05-23T17:28:23.437Z,101318.44
2023-05-23T17:30:53.325Z,101311.00
2023-05-23T17:33:22.496Z,101308.31
2023-05-23T17:35:50.232Z,101304.59
2023-05-23T17:38:18.148Z,101317.88
2023-05-23T17:40:46.146Z,101307.16
2023-05-23T17:43:14.081Z,101309.00
2023-05-23T17:45:41.983Z,101318.19
2023-05-23T17:48:09.781Z,101315.28
2023-05-23T17:50:39.140Z,101323.19
2023-05-23T17:53:06.901Z,101322.63
2023-05-23T17:55:34.634Z,101324.13
2023-05-23T17:58:02.411Z,101321.34
2023-05-23T18:00:30.500Z,101324.72
2023-05-23T18:02:58.287Z,101319.13
2023-05-23T18:05:26.422Z,101319.25
2023-05-23T18:07:55.541Z,101333.06
2023-05-23T18:10:24.412Z,101328.88
2023-05-23T18:12:52.431Z,101319.78
2023-05-23T18:15:20.472Z,101323.50
2023-05-23T18:17:48.442Z,101325.69
2023-05-23T18:20:16.665Z,101333.78
2023-05-23T18:22:44.470Z,101335.06
2023-05-23T18:25:19.651Z,101329.09
2023-05-23T18:27:47.409Z,101337.38
2023-05-23T18:30:15.489Z,101342.03
2023-05-23T18:32:43.806Z,101343.31
2023-05-23T18:35:11.688Z,101342.75
2023-05-23T18:37:39.920Z,101340.06
2023-05-23T18:40:09.942Z,101347.91
2023-05-23T18:42:39.097Z,101345.78
2023-05-23T18:45:08.161Z,101347.09
2023-05-23T18:47:36.657Z,101353.63
2023-05-23T18:50:05.177Z,101352.59
2023-05-23T18:52:37.254Z,101357.41
2023-05-23T18:55:05.727Z,101357.66
2023-05-23T18:57:33.585Z,101361.09
2023-05-23T19:00:03.673Z,101361.91
2023-05-23T19:02:31.624Z,101364.19
2023-05-23T19:04:59.505Z,101367.75
2023-05-23T19:07:27.575Z,101371.47
2023-05-23T19:09:55.594Z,101378.06
2023-05-23T19:12:23.713Z,101385.50
2023-05-23T19:14:52.314Z,101385.78
2023-05-23T19:17:21.571Z,101395.50
2023-05-23T19:19:49.499Z,101396.41
2023-05-23T19:22:17.741Z,101396.78
2023-05-23T19:24:45.558Z,101395.16
2023-05-23T19:27:14.851Z,101395.25
2023-05-23T19:29:43.626Z,101399.16
2023-05-23T19:32:11.504Z,101394.84
2023-05-23T19:34:40.939Z,101402.78
2023-05-23T19:37:11.738Z,101396.63
2023-05-23T19:39:42.757Z,101395.94
2023-05-23T19:42:10.612Z,101396.44
2023-05-23T19:44:38.670Z,101404.00
2023-05-23T19:47:07.728Z,101412.66
2023-05-23T19:49:35.886Z,101405.69
2023-05-23T19:52:05.524Z,101414.81
2023-05-23T19:54:33.177Z,101411.03
2023-05-23T19:57:01.165Z,101411.84
2023-05-23T19:59:29.399Z,101417.69
2023-05-23T20:01:57.303Z,101419.75
2023-05-23T20:04:25.312Z,101417.75
2023-05-23T20:06:54.002Z,101421.88
2023-05-23T20:09:23.688Z,101432.31
2023-05-23T20:11:51.368Z,101433.13
2023-05-23T20:14:19.612Z,101437.88
2023-05-23T20:16:48.345Z,101437.13
2023-05-23T20:19:16.292Z,101435.34
2023-05-23T20:21:44.505Z,101445.25
2023-05-23T20:24:14.849Z,101449.16
2023-05-23T20:26:44.343Z,101451.63
2023-05-23T20:29:12.200Z,101448.31
2023-05-23T20:31:40.147Z,101457.78
2023-05-23T20:34:08.303Z,101452.25
2023-05-23T20:36:37.098Z,101449.00
2023-05-23T20:39:06.277Z,101448.38
2023-05-23T20:41:34.413Z,101445.72
2023-05-23T20:44:03.595Z,101459.28
2023-05-23T20:46:32.157Z,101458.31
2023-05-23T20:49:01.540Z,101472.66
2023-05-23T20:51:29.580Z,101475.94
2023-05-23T20:53:57.653Z,101489.09
2023-05-23T20:56:27.243Z,101487.47
2023-05-23T20:58:54.889Z,101489.97
2023-05-23T21:01:24.956Z,101492.44
2023-05-23T21:03:53.482Z,101501.50
2023-05-23T21:06:21.348Z,101509.66
2023-05-23T21:08:49.444Z,101512.75
2023-05-23T21:11:17.560Z,101504.13
2023-05-23T21:13:45.648Z,101504.56
2023-05-23T21:16:14.641Z,101502.50
2023-05-23T21:18:44.239Z,101496.75
2023-05-23T21:21:12.084Z,101503.94
2023-05-23T21:23:40.046Z,101494.13
2023-05-23T21:26:08.261Z,101487.75
2023-05-23T21:28:36.183Z,101489.41
2023-05-23T21:31:04.783Z,101490.44
2023-05-23T21:33:33.426Z,101479.97
2023-05-23T21:36:02.926Z,101481.81
2023-05-23T21:38:31.303Z,101477.72
2023-05-23T21:40:59.517Z,101483.84
2023-05-23T21:43:27.611Z,101489.38
2023-05-23T21:45:55.701Z,101487.97
2023-05-23T21:48:23.519Z,101495.34
2023-05-23T21:50:51.491Z,101494.06
2023-05-23T21:53:21.242Z,101492.84
2023-05-23T21:55:49.155Z,101496.94
2023-05-23T21:58:17.062Z,101492.41
2023-05-23T22:00:46.008Z,101488.13
2023-05-23T22:03:14.105Z,101487.09
2023-05-23T22:05:42.022Z,101485.88
2023-05-23T22:08:10.218Z,101498.38
2023-05-23T22:10:40.544Z,101492.03
2023-05-23T22:13:09.548Z,101488.09
2023-05-23T22:15:38.025Z,101494.47
2023-05-23T22:18:06.528Z,101485.44
2023-05-23T22:20:38.707Z,101497.97
2023-05-23T22:23:07.444Z,101493.66
2023-05-23T22:25:35.323Z,101493.63
2023-05-23T22:28:05.154Z,101498.78
2023-05-23T22:30:32.958Z,101495.69
2023-05-23T22:33:01.856Z,101498.56
2023-05-23T22:35:30.254Z,101507.16
2023-05-23T22:37:58.061Z,101505.06
2023-05-23T22:40:25.904Z,101504.28
2023-05-23T22:42:54.201Z,101498.91
2023-05-23T22:45:23.523Z,101493.81
2023-05-23T22:47:54.413Z,101501.41
2023-05-23T22:50:22.916Z,101511.19
2023-05-23T22:52:50.791Z,101509.94
2023-05-23T22:55:19.174Z,101500.97
2023-05-23T22:57:47.099Z,101502.78
2023-05-23T23:00:15.406Z,101502.59
2023-05-23T23:02:45.946Z,101494.56
2023-05-23T23:05:14.715Z,101485.19
2023-05-23T23:07:42.943Z,101492.31
2023-05-23T23:10:11.502Z,101491.09
2023-05-23T23:12:39.400Z,101491.91
2023-05-23T23:15:08.852Z,101492.28
2023-05-23T23:17:37.383Z,101486.56
2023-05-23T23:20:08.915Z,101490.22
2023-05-23T23:22:37.450Z,101484.28
2023-05-23T23:25:05.995Z,101482.66
2023-05-23T23:27:33.911Z,101479.56
2023-05-23T23:30:02.189Z,101484.06
2023-05-23T23:32:30.883Z,101482.00
2023-05-23T23:34:59.528Z,101483.63
2023-05-23T23:37:29.021Z,101489.38
2023-05-23T23:39:56.978Z,101486.28
2023-05-23T23:42:24.813Z,101475.84
2023-05-23T23:44:53.047Z,101486.88
2023-05-23T23:47:20.983Z,101484.81
2023-05-23T23:49:48.833Z,101492.41
2023-05-23T23:52:17.943Z,101486.38
2023-05-23T23:54:47.198Z,101492.34
2023-05-23T23:57:15.186Z,101485.81
2023-05-23T23:59:43.840Z,101488.84
